Airfield :
LOGIN :

Register | Disclaimer

   EN    FR    IT 

 










Legend :    VFR   Marginal VFR   IFR   Intensive IFR   Very Intensive IFR
Visi :
Ceiling :
>= 8 km
>= 3000ft
5 to 8 km
1000 to 3000 ft
1500m to 5 km
500 to 1000 ft
800 to 1500m
200 to 500 ft
< 800m
< 200 ft
Symbols :   Thunderstorms  Fog  Heavy snow  Heavy precipitations  Wind > 20 kt
SIGMETs :     Misc.  Thunderstorms  Icing  Turbulence  Mountain Waves  Volcanic Ashes






- Airport Elevation : 53 ft
- IATA code : HAM


EDDH - Hamburg

CURRENT METAR :
  • 190250Z 21020G30KT 9999 -RA FEW016 SCT019 BKN028 06/03 Q1006 NOSIG

EXPIRED METARs :
  • 190220Z 21019KT 9999 -RA FEW017 BKN028 06/03 Q1007 TEMPO 24015G25KT
  • 190150Z 21017KT 9999 -RA FEW018 BKN026 06/03 Q1007 TEMPO 24015G25KT
  • 190120Z 21017KT 9999 -RA SCT016 BKN021 06/03 Q1008 TEMPO 24015G25KT
  • 190050Z 21018KT 9999 -RA SCT017 BKN024 06/03 Q1009 TEMPO 24015G25KT
  • 190020Z 22017G28KT 9999 -RA SCT020 BKN026 07/03 Q1009 NOSIG

TAF TAF EDDH
Valid from the 19 at 00:00 until the 20 at 06:00 UTC


182300Z 1900/2006 21013KT 9999 BKN020
TEMPO 1900/1905 23015G25KT
TEMPO 1902/1905 RA BKN012
BECMG 1905/1907 28012KT
TEMPO 1905/1908 BKN012
BECMG 1908/1910 27015G25KT
TEMPO 1908/1916 SHRA BKN014CB
TEMPO 1910/1916 28020G30KT
BECMG 1917/1919 26010KT
BECMG 2000/2002 20010KT
TEMPO 2004/2006 BKN012



MET'MAP, your aeronautical weather chart ! - Copyright ORBIFLY December 2007 - Disclaimer

ORBIFLY MET'MAP TEAM :

Programming & Development : Alexandra Zaïnal
Concept & original design : Baudouin d'Aumeries
Assistance for programming : Marc-Olivier Méhu
Technical & hardware support : Manuel Goepfert

Contact : metmap@orbifly.com




SOURCES & CREDITS :

   NOAA